sensor_id;sensor_type;location;lat;lon;timestamp;P1;durP1;ratioP1;P2;durP2;ratioP2
3704;SDS011;1868;48.918;9.438;2023-04-01T00:01:45;0.50;;;0.40;;
3704;SDS011;1868;48.918;9.438;2023-04-01T00:04:16;2.00;;;0.60;;
3704;SDS011;1868;48.918;9.438;2023-04-01T00:06:49;2.00;;;0.60;;
3704;SDS011;1868;48.918;9.438;2023-04-01T00:09:20;1.60;;;0.77;;
3704;SDS011;1868;48.918;9.438;2023-04-01T00:11:55;2.30;;;0.60;;
3704;SDS011;1868;48.918;9.438;2023-04-01T00:14:24;4.30;;;0.30;;
3704;SDS011;1868;48.918;9.438;2023-04-01T00:16:53;2.60;;;0.50;;
3704;SDS011;1868;48.918;9.438;2023-04-01T00:19:22;1.00;;;0.60;;
3704;SDS011;1868;48.918;9.438;2023-04-01T00:21:53;0.77;;;0.33;;
3704;SDS011;1868;48.918;9.438;2023-04-01T00:24:27;2.20;;;0.77;;
3704;SDS011;1868;48.918;9.438;2023-04-01T00:26:57;2.00;;;0.67;;
3704;SDS011;1868;48.918;9.438;2023-04-01T00:29:26;0.90;;;0.60;;
3704;SDS011;1868;48.918;9.438;2023-04-01T00:31:57;5.03;;;0.93;;
3704;SDS011;1868;48.918;9.438;2023-04-01T00:34:26;0.47;;;0.40;;
3704;SDS011;1868;48.918;9.438;2023-04-01T00:36:56;6.47;;;1.50;;
3704;SDS011;1868;48.918;9.438;2023-04-01T00:39:25;2.20;;;0.60;;
3704;SDS011;1868;48.918;9.438;2023-04-01T00:41:59;1.37;;;0.70;;
3704;SDS011;1868;48.918;9.438;2023-04-01T00:44:30;3.87;;;0.70;;
3704;SDS011;1868;48.918;9.438;2023-04-01T00:47:01;1.80;;;0.60;;
3704;SDS011;1868;48.918;9.438;2023-04-01T00:49:30;4.23;;;1.23;;
3704;SDS011;1868;48.918;9.438;2023-04-01T00:52:06;1.47;;;0.70;;
3704;SDS011;1868;48.918;9.438;2023-04-01T00:54:39;2.30;;;0.67;;
3704;SDS011;1868;48.918;9.438;2023-04-01T00:57:12;2.10;;;0.77;;
3704;SDS011;1868;48.918;9.438;2023-04-01T00:59:45;4.13;;;0.50;;
3704;SDS011;1868;48.918;9.438;2023-04-01T01:02:16;1.33;;;0.60;;
3704;SDS011;1868;48.918;9.438;2023-04-01T01:04:47;1.70;;;0.70;;
3704;SDS011;1868;48.918;9.438;2023-04-01T01:07:21;0.60;;;0.50;;
3704;SDS011;1868;48.918;9.438;2023-04-01T01:10:02;4.63;;;0.70;;
3704;SDS011;1868;48.918;9.438;2023-04-01T01:12:39;1.07;;;0.60;;
3704;SDS011;1868;48.918;9.438;2023-04-01T01:15:16;3.70;;;1.03;;
3704;SDS011;1868;48.918;9.438;2023-04-01T01:17:51;2.00;;;0.57;;
3704;SDS011;1868;48.918;9.438;2023-04-01T01:27:12;5.77;;;0.77;;
3704;SDS011;1868;48.918;9.438;2023-04-01T01:32:54;2.57;;;0.60;;
3704;SDS011;1868;48.918;9.438;2023-04-01T01:35:43;6.20;;;1.97;;
3704;SDS011;1868;48.918;9.438;2023-04-01T01:38:18;2.07;;;0.57;;
3704;SDS011;1868;48.918;9.438;2023-04-01T01:40:58;8.63;;;0.83;;
3704;SDS011;1868;48.918;9.438;2023-04-01T01:43:30;3.60;;;0.97;;
3704;SDS011;1868;48.918;9.438;2023-04-01T01:46:04;2.20;;;0.70;;
3704;SDS011;1868;48.918;9.438;2023-04-01T01:48:38;2.80;;;0.70;;
3704;SDS011;1868;48.918;9.438;2023-04-01T01:51:11;3.77;;;0.63;;
3704;SDS011;1868;48.918;9.438;2023-04-01T01:53:40;5.17;;;0.80;;
3704;SDS011;1868;48.918;9.438;2023-04-01T01:56:11;5.20;;;0.60;;
3704;SDS011;1868;48.918;9.438;2023-04-01T01:58:43;2.83;;;1.63;;
3704;SDS011;1868;48.918;9.438;2023-04-01T02:01:17;1.47;;;0.57;;
3704;SDS011;1868;48.918;9.438;2023-04-01T02:03:50;7.30;;;0.90;;
3704;SDS011;1868;48.918;9.438;2023-04-01T02:06:24;2.67;;;0.80;;
3704;SDS011;1868;48.918;9.438;2023-04-01T02:08:57;4.63;;;0.80;;
3704;SDS011;1868;48.918;9.438;2023-04-01T02:11:29;2.73;;;0.60;;
3704;SDS011;1868;48.918;9.438;2023-04-01T02:14:04;2.53;;;0.50;;
3704;SDS011;1868;48.918;9.438;2023-04-01T02:16:38;1.67;;;0.60;;
3704;SDS011;1868;48.918;9.438;2023-04-01T02:19:12;3.10;;;0.80;;
3704;SDS011;1868;48.918;9.438;2023-04-01T02:21:52;3.20;;;0.87;;
3704;SDS011;1868;48.918;9.438;2023-04-01T02:24:26;2.93;;;0.80;;
3704;SDS011;1868;48.918;9.438;2023-04-01T02:26:59;2.93;;;0.77;;
3704;SDS011;1868;48.918;9.438;2023-04-01T02:29:29;1.93;;;0.70;;
3704;SDS011;1868;48.918;9.438;2023-04-01T02:31:59;5.70;;;1.00;;
3704;SDS011;1868;48.918;9.438;2023-04-01T02:34:28;1.63;;;0.67;;
3704;SDS011;1868;48.918;9.438;2023-04-01T02:37:00;1.60;;;0.53;;
3704;SDS011;1868;48.918;9.438;2023-04-01T02:39:29;1.67;;;0.60;;
3704;SDS011;1868;48.918;9.438;2023-04-01T02:41:58;2.00;;;0.80;;
3704;SDS011;1868;48.918;9.438;2023-04-01T02:44:28;2.10;;;0.60;;
3704;SDS011;1868;48.918;9.438;2023-04-01T02:46:57;1.37;;;0.40;;
3704;SDS011;1868;48.918;9.438;2023-04-01T02:49:28;1.70;;;0.60;;
3704;SDS011;1868;48.918;9.438;2023-04-01T02:51:59;6.30;;;0.70;;
3704;SDS011;1868;48.918;9.438;2023-04-01T02:54:28;3.87;;;0.57;;
3704;SDS011;1868;48.918;9.438;2023-04-01T02:56:57;1.90;;;0.70;;
3704;SDS011;1868;48.918;9.438;2023-04-01T02:59:27;2.60;;;0.60;;
3704;SDS011;1868;48.918;9.438;2023-04-01T03:01:56;1.63;;;0.60;;
3704;SDS011;1868;48.918;9.438;2023-04-01T03:04:25;1.60;;;0.60;;
3704;SDS011;1868;48.918;9.438;2023-04-01T03:06:54;0.83;;;0.60;;
3704;SDS011;1868;48.918;9.438;2023-04-01T03:09:25;2.20;;;0.50;;
3704;SDS011;1868;48.918;9.438;2023-04-01T03:11:54;0.30;;;0.30;;
3704;SDS011;1868;48.918;9.438;2023-04-01T03:14:24;1.50;;;0.33;;
3704;SDS011;1868;48.918;9.438;2023-04-01T03:16:54;0.83;;;0.40;;
3704;SDS011;1868;48.918;9.438;2023-04-01T03:19:23;2.43;;;0.53;;
3704;SDS011;1868;48.918;9.438;2023-04-01T03:21:54;1.47;;;0.30;;
3704;SDS011;1868;48.918;9.438;2023-04-01T03:24:24;1.60;;;0.40;;
3704;SDS011;1868;48.918;9.438;2023-04-01T03:26:53;1.80;;;0.30;;
3704;SDS011;1868;48.918;9.438;2023-04-01T03:29:22;2.87;;;0.40;;
3704;SDS011;1868;48.918;9.438;2023-04-01T03:31:51;5.00;;;0.53;;
3704;SDS011;1868;48.918;9.438;2023-04-01T03:34:20;2.53;;;0.30;;
3704;SDS011;1868;48.918;9.438;2023-04-01T03:36:50;2.67;;;0.50;;
3704;SDS011;1868;48.918;9.438;2023-04-01T03:39:19;0.50;;;0.30;;
3704;SDS011;1868;48.918;9.438;2023-04-01T03:41:50;1.67;;;0.50;;
3704;SDS011;1868;48.918;9.438;2023-04-01T03:44:21;0.40;;;0.40;;
3704;SDS011;1868;48.918;9.438;2023-04-01T03:46:54;1.03;;;0.50;;
3704;SDS011;1868;48.918;9.438;2023-04-01T03:49:23;0.70;;;0.30;;
3704;SDS011;1868;48.918;9.438;2023-04-01T03:51:52;1.07;;;0.20;;
3704;SDS011;1868;48.918;9.438;2023-04-01T03:54:21;0.97;;;0.40;;
3704;SDS011;1868;48.918;9.438;2023-04-01T03:56:51;0.60;;;0.60;;
3704;SDS011;1868;48.918;9.438;2023-04-01T03:59:22;0.80;;;0.50;;
3704;SDS011;1868;48.918;9.438;2023-04-01T04:01:51;2.93;;;0.40;;
3704;SDS011;1868;48.918;9.438;2023-04-01T04:04:21;1.03;;;0.30;;
3704;SDS011;1868;48.918;9.438;2023-04-01T04:06:49;3.20;;;0.30;;
3704;SDS011;1868;48.918;9.438;2023-04-01T04:09:24;1.97;;;0.43;;
3704;SDS011;1868;48.918;9.438;2023-04-01T04:11:54;0.87;;;0.40;;
3704;SDS011;1868;48.918;9.438;2023-04-01T04:14:23;0.50;;;0.33;;
3704;SDS011;1868;48.918;9.438;2023-04-01T04:16:54;2.47;;;0.53;;
3704;SDS011;1868;48.918;9.438;2023-04-01T04:19:24;1.67;;;0.63;;
3704;SDS011;1868;48.918;9.438;2023-04-01T04:21:52;0.70;;;0.47;;
3704;SDS011;1868;48.918;9.438;2023-04-01T04:24:23;0.33;;;0.20;;
3704;SDS011;1868;48.918;9.438;2023-04-01T04:27:02;0.73;;;0.50;;
3704;SDS011;1868;48.918;9.438;2023-04-01T04:29:31;1.17;;;0.60;;
3704;SDS011;1868;48.918;9.438;2023-04-01T04:32:01;1.03;;;0.40;;
3704;SDS011;1868;48.918;9.438;2023-04-01T04:34:29;2.00;;;0.53;;
3704;SDS011;1868;48.918;9.438;2023-04-01T04:36:58;1.23;;;0.60;;
3704;SDS011;1868;48.918;9.438;2023-04-01T04:39:32;1.33;;;0.43;;
3704;SDS011;1868;48.918;9.438;2023-04-01T04:42:03;2.40;;;0.60;;
3704;SDS011;1868;48.918;9.438;2023-04-01T04:44:32;1.07;;;0.33;;
3704;SDS011;1868;48.918;9.438;2023-04-01T04:47:01;1.70;;;0.73;;
3704;SDS011;1868;48.918;9.438;2023-04-01T04:49:30;0.63;;;0.40;;
3704;SDS011;1868;48.918;9.438;2023-04-01T04:52:04;0.30;;;0.30;;
3704;SDS011;1868;48.918;9.438;2023-04-01T04:54:33;0.47;;;0.37;;
3704;SDS011;1868;48.918;9.438;2023-04-01T04:57:04;2.17;;;0.77;;
3704;SDS011;1868;48.918;9.438;2023-04-01T04:59:40;2.93;;;0.47;;
3704;SDS011;1868;48.918;9.438;2023-04-01T05:02:18;2.00;;;0.37;;
3704;SDS011;1868;48.918;9.438;2023-04-01T05:04:47;1.10;;;0.40;;
3704;SDS011;1868;48.918;9.438;2023-04-01T05:07:16;1.70;;;0.50;;
3704;SDS011;1868;48.918;9.438;2023-04-01T05:09:45;0.40;;;0.30;;
3704;SDS011;1868;48.918;9.438;2023-04-01T05:12:15;1.87;;;0.40;;
3704;SDS011;1868;48.918;9.438;2023-04-01T05:14:55;1.10;;;0.37;;
3704;SDS011;1868;48.918;9.438;2023-04-01T05:17:28;0.97;;;0.30;;
3704;SDS011;1868;48.918;9.438;2023-04-01T05:19:56;0.40;;;0.30;;
3704;SDS011;1868;48.918;9.438;2023-04-01T05:22:26;1.27;;;0.40;;
3704;SDS011;1868;48.918;9.438;2023-04-01T05:24:54;2.00;;;0.50;;
3704;SDS011;1868;48.918;9.438;2023-04-01T05:27:25;2.30;;;0.50;;
3704;SDS011;1868;48.918;9.438;2023-04-01T05:29:54;2.73;;;0.60;;
3704;SDS011;1868;48.918;9.438;2023-04-01T05:32:58;1.37;;;0.70;;
3704;SDS011;1868;48.918;9.438;2023-04-01T05:35:27;1.60;;;0.53;;
3704;SDS011;1868;48.918;9.438;2023-04-01T05:37:57;0.50;;;0.40;;
3704;SDS011;1868;48.918;9.438;2023-04-01T05:40:28;1.10;;;0.47;;
3704;SDS011;1868;48.918;9.438;2023-04-01T05:42:59;1.67;;;0.50;;
3704;SDS011;1868;48.918;9.438;2023-04-01T05:45:28;2.50;;;0.60;;
3704;SDS011;1868;48.918;9.438;2023-04-01T05:48:30;5.50;;;1.03;;
3704;SDS011;1868;48.918;9.438;2023-04-01T05:51:01;3.20;;;0.50;;
3704;SDS011;1868;48.918;9.438;2023-04-01T05:53:33;1.40;;;0.50;;
3704;SDS011;1868;48.918;9.438;2023-04-01T05:56:07;5.40;;;0.83;;
3704;SDS011;1868;48.918;9.438;2023-04-01T05:58:51;3.03;;;0.60;;
3704;SDS011;1868;48.918;9.438;2023-04-01T06:01:23;0.80;;;0.60;;
3704;SDS011;1868;48.918;9.438;2023-04-01T06:03:52;1.90;;;0.43;;
3704;SDS011;1868;48.918;9.438;2023-04-01T06:06:23;3.00;;;1.07;;
3704;SDS011;1868;48.918;9.438;2023-04-01T06:09:01;2.50;;;0.77;;
3704;SDS011;1868;48.918;9.438;2023-04-01T06:11:50;0.30;;;0.30;;
3704;SDS011;1868;48.918;9.438;2023-04-01T06:14:40;5.73;;;1.20;;
3704;SDS011;1868;48.918;9.438;2023-04-01T06:17:21;3.40;;;0.50;;
3704;SDS011;1868;48.918;9.438;2023-04-01T06:20:02;2.97;;;0.50;;
3704;SDS011;1868;48.918;9.438;2023-04-01T06:22:44;2.53;;;0.80;;
3704;SDS011;1868;48.918;9.438;2023-04-01T06:25:49;2.53;;;0.40;;
3704;SDS011;1868;48.918;9.438;2023-04-01T06:31:59;3.30;;;0.70;;
3704;SDS011;1868;48.918;9.438;2023-04-01T06:35:11;2.57;;;0.90;;
3704;SDS011;1868;48.918;9.438;2023-04-01T06:38:00;1.30;;;0.60;;
3704;SDS011;1868;48.918;9.438;2023-04-01T06:41:16;2.97;;;0.50;;
3704;SDS011;1868;48.918;9.438;2023-04-01T06:44:06;5.20;;;0.60;;
3704;SDS011;1868;48.918;9.438;2023-04-01T06:47:14;3.50;;;0.97;;
3704;SDS011;1868;48.918;9.438;2023-04-01T06:50:19;2.10;;;0.70;;
3704;SDS011;1868;48.918;9.438;2023-04-01T06:52:59;2.40;;;1.40;;
3704;SDS011;1868;48.918;9.438;2023-04-01T06:55:55;2.73;;;0.80;;
3704;SDS011;1868;48.918;9.438;2023-04-01T06:58:55;1.77;;;0.70;;
3704;SDS011;1868;48.918;9.438;2023-04-01T07:01:29;3.30;;;0.87;;
3704;SDS011;1868;48.918;9.438;2023-04-01T07:04:09;4.57;;;0.83;;
3704;SDS011;1868;48.918;9.438;2023-04-01T07:06:45;2.20;;;1.10;;
3704;SDS011;1868;48.918;9.438;2023-04-01T07:09:19;2.20;;;0.70;;
3704;SDS011;1868;48.918;9.438;2023-04-01T07:12:10;1.07;;;0.60;;
3704;SDS011;1868;48.918;9.438;2023-04-01T07:15:19;1.17;;;0.60;;
3704;SDS011;1868;48.918;9.438;2023-04-01T07:17:53;1.13;;;0.70;;
3704;SDS011;1868;48.918;9.438;2023-04-01T07:20:29;3.03;;;1.27;;
3704;SDS011;1868;48.918;9.438;2023-04-01T07:23:04;1.33;;;0.60;;
3704;SDS011;1868;48.918;9.438;2023-04-01T07:25:58;1.03;;;0.73;;
3704;SDS011;1868;48.918;9.438;2023-04-01T07:28:29;1.37;;;1.13;;
3704;SDS011;1868;48.918;9.438;2023-04-01T07:31:18;1.20;;;0.60;;
3704;SDS011;1868;48.918;9.438;2023-04-01T07:34:00;3.30;;;0.70;;
3704;SDS011;1868;48.918;9.438;2023-04-01T07:36:42;7.60;;;0.93;;
3704;SDS011;1868;48.918;9.438;2023-04-01T07:39:17;2.37;;;0.80;;
3704;SDS011;1868;48.918;9.438;2023-04-01T07:42:13;1.07;;;0.90;;
3704;SDS011;1868;48.918;9.438;2023-04-01T07:44:54;1.27;;;0.50;;
3704;SDS011;1868;48.918;9.438;2023-04-01T07:47:36;1.57;;;0.77;;
3704;SDS011;1868;48.918;9.438;2023-04-01T07:50:20;1.83;;;0.53;;
3704;SDS011;1868;48.918;9.438;2023-04-01T07:52:59;1.47;;;0.47;;
3704;SDS011;1868;48.918;9.438;2023-04-01T07:55:37;1.33;;;0.70;;
3704;SDS011;1868;48.918;9.438;2023-04-01T07:58:14;2.50;;;0.50;;
3704;SDS011;1868;48.918;9.438;2023-04-01T08:00:53;1.57;;;0.60;;
3704;SDS011;1868;48.918;9.438;2023-04-01T08:03:40;0.90;;;0.40;;
3704;SDS011;1868;48.918;9.438;2023-04-01T08:06:25;1.90;;;0.60;;
3704;SDS011;1868;48.918;9.438;2023-04-01T08:09:02;1.53;;;0.60;;
3704;SDS011;1868;48.918;9.438;2023-04-01T08:12:00;3.27;;;0.80;;
3704;SDS011;1868;48.918;9.438;2023-04-01T08:15:12;1.07;;;0.63;;
3704;SDS011;1868;48.918;9.438;2023-04-01T08:17:59;2.10;;;0.40;;
3704;SDS011;1868;48.918;9.438;2023-04-01T08:20:44;1.00;;;0.50;;
3704;SDS011;1868;48.918;9.438;2023-04-01T08:23:16;4.40;;;0.67;;
3704;SDS011;1868;48.918;9.438;2023-04-01T08:25:50;3.03;;;1.17;;
3704;SDS011;1868;48.918;9.438;2023-04-01T08:28:29;1.17;;;0.40;;
3704;SDS011;1868;48.918;9.438;2023-04-01T08:31:05;1.10;;;0.63;;
3704;SDS011;1868;48.918;9.438;2023-04-01T08:33:42;1.03;;;0.60;;
3704;SDS011;1868;48.918;9.438;2023-04-01T08:36:13;1.53;;;0.53;;
3704;SDS011;1868;48.918;9.438;2023-04-01T08:38:53;1.23;;;0.40;;
3704;SDS011;1868;48.918;9.438;2023-04-01T08:41:31;5.70;;;1.97;;
3704;SDS011;1868;48.918;9.438;2023-04-01T08:44:58;4.80;;;0.97;;
3704;SDS011;1868;48.918;9.438;2023-04-01T08:48:10;0.97;;;0.60;;
3704;SDS011;1868;48.918;9.438;2023-04-01T08:54:45;5.27;;;0.90;;
3704;SDS011;1868;48.918;9.438;2023-04-01T08:58:06;1.33;;;0.63;;
3704;SDS011;1868;48.918;9.438;2023-04-01T09:01:22;1.30;;;0.53;;
3704;SDS011;1868;48.918;9.438;2023-04-01T09:04:22;0.93;;;0.80;;
3704;SDS011;1868;48.918;9.438;2023-04-01T09:07:07;2.17;;;0.70;;
3704;SDS011;1868;48.918;9.438;2023-04-01T09:16:13;1.10;;;1.10;;
3704;SDS011;1868;48.918;9.438;2023-04-01T09:19:15;1.23;;;0.60;;
3704;SDS011;1868;48.918;9.438;2023-04-01T09:22:09;3.70;;;0.90;;
3704;SDS011;1868;48.918;9.438;2023-04-01T09:24:56;0.87;;;0.80;;
3704;SDS011;1868;48.918;9.438;2023-04-01T09:27:52;0.50;;;0.47;;
3704;SDS011;1868;48.918;9.438;2023-04-01T09:30:36;2.40;;;0.70;;
3704;SDS011;1868;48.918;9.438;2023-04-01T09:33:34;0.40;;;0.40;;
3704;SDS011;1868;48.918;9.438;2023-04-01T09:36:57;1.63;;;0.77;;
3704;SDS011;1868;48.918;9.438;2023-04-01T09:39:57;1.17;;;0.50;;
3704;SDS011;1868;48.918;9.438;2023-04-01T09:43:00;0.50;;;0.50;;
3704;SDS011;1868;48.918;9.438;2023-04-01T09:46:06;0.50;;;0.40;;
3704;SDS011;1868;48.918;9.438;2023-04-01T09:48:55;1.60;;;0.57;;
3704;SDS011;1868;48.918;9.438;2023-04-01T09:52:02;1.57;;;0.40;;
3704;SDS011;1868;48.918;9.438;2023-04-01T09:54:50;1.53;;;0.60;;
3704;SDS011;1868;48.918;9.438;2023-04-01T10:01:09;0.60;;;0.40;;
3704;SDS011;1868;48.918;9.438;2023-04-01T10:04:27;0.30;;;0.30;;
3704;SDS011;1868;48.918;9.438;2023-04-01T10:14:25;0.50;;;0.30;;
3704;SDS011;1868;48.918;9.438;2023-04-01T10:21:17;0.60;;;0.40;;
3704;SDS011;1868;48.918;9.438;2023-04-01T10:27:53;1.17;;;0.30;;
3704;SDS011;1868;48.918;9.438;2023-04-01T10:34:21;0.30;;;0.30;;
3704;SDS011;1868;48.918;9.438;2023-04-01T10:37:28;0.20;;;0.20;;
3704;SDS011;1868;48.918;9.438;2023-04-01T10:40:38;0.60;;;0.47;;
3704;SDS011;1868;48.918;9.438;2023-04-01T10:47:39;0.50;;;0.50;;
3704;SDS011;1868;48.918;9.438;2023-04-01T10:53:50;0.30;;;0.30;;
3704;SDS011;1868;48.918;9.438;2023-04-01T10:56:55;0.30;;;0.30;;
3704;SDS011;1868;48.918;9.438;2023-04-01T11:17:02;4.67;;;3.10;;
3704;SDS011;1868;48.918;9.438;2023-04-01T11:23:58;4.10;;;2.40;;
3704;SDS011;1868;48.918;9.438;2023-04-01T11:27:09;4.37;;;3.97;;
3704;SDS011;1868;48.918;9.438;2023-04-01T11:30:04;3.17;;;1.17;;
3704;SDS011;1868;48.918;9.438;2023-04-01T11:32:53;0.60;;;0.60;;
3704;SDS011;1868;48.918;9.438;2023-04-01T11:35:38;2.63;;;0.43;;
3704;SDS011;1868;48.918;9.438;2023-04-01T11:38:28;0.20;;;0.20;;
3704;SDS011;1868;48.918;9.438;2023-04-01T11:41:49;0.30;;;0.30;;
3704;SDS011;1868;48.918;9.438;2023-04-01T11:44:46;0.40;;;0.40;;
3704;SDS011;1868;48.918;9.438;2023-04-01T11:47:43;0.30;;;0.30;;
3704;SDS011;1868;48.918;9.438;2023-04-01T11:50:43;0.27;;;0.27;;
3704;SDS011;1868;48.918;9.438;2023-04-01T11:53:33;0.40;;;0.30;;
3704;SDS011;1868;48.918;9.438;2023-04-01T11:56:23;0.93;;;0.53;;
3704;SDS011;1868;48.918;9.438;2023-04-01T12:02:42;0.30;;;0.20;;
3704;SDS011;1868;48.918;9.438;2023-04-01T12:05:32;1.00;;;0.50;;
3704;SDS011;1868;48.918;9.438;2023-04-01T12:08:15;0.50;;;0.50;;
3704;SDS011;1868;48.918;9.438;2023-04-01T12:10:57;0.30;;;0.30;;
3704;SDS011;1868;48.918;9.438;2023-04-01T12:13:36;0.30;;;0.30;;
3704;SDS011;1868;48.918;9.438;2023-04-01T12:16:19;0.40;;;0.30;;
3704;SDS011;1868;48.918;9.438;2023-04-01T12:19:03;0.30;;;0.30;;
3704;SDS011;1868;48.918;9.438;2023-04-01T12:21:43;0.30;;;0.30;;
3704;SDS011;1868;48.918;9.438;2023-04-01T12:24:36;0.90;;;0.50;;
3704;SDS011;1868;48.918;9.438;2023-04-01T12:27:21;0.30;;;0.20;;
3704;SDS011;1868;48.918;9.438;2023-04-01T12:33:12;0.40;;;0.40;;
3704;SDS011;1868;48.918;9.438;2023-04-01T12:36:13;0.27;;;0.23;;
3704;SDS011;1868;48.918;9.438;2023-04-01T12:39:00;0.30;;;0.30;;
3704;SDS011;1868;48.918;9.438;2023-04-01T12:42:36;0.20;;;0.20;;
3704;SDS011;1868;48.918;9.438;2023-04-01T12:45:27;12.73;;;10.03;;
3704;SDS011;1868;48.918;9.438;2023-04-01T12:57:34;0.97;;;0.97;;
3704;SDS011;1868;48.918;9.438;2023-04-01T13:00:55;0.57;;;0.57;;
3704;SDS011;1868;48.918;9.438;2023-04-01T13:03:55;0.40;;;0.40;;
3704;SDS011;1868;48.918;9.438;2023-04-01T13:10:20;0.70;;;0.30;;
3704;SDS011;1868;48.918;9.438;2023-04-01T13:13:17;0.30;;;0.20;;
3704;SDS011;1868;48.918;9.438;2023-04-01T13:16:28;0.20;;;0.20;;
3704;SDS011;1868;48.918;9.438;2023-04-01T13:19:01;0.20;;;0.20;;
3704;SDS011;1868;48.918;9.438;2023-04-01T13:21:44;0.23;;;0.23;;
3704;SDS011;1868;48.918;9.438;2023-04-01T13:24:26;0.30;;;0.23;;
3704;SDS011;1868;48.918;9.438;2023-04-01T13:27:13;0.30;;;0.30;;
3704;SDS011;1868;48.918;9.438;2023-04-01T13:29:50;0.40;;;0.30;;
3704;SDS011;1868;48.918;9.438;2023-04-01T13:32:34;0.80;;;0.30;;
3704;SDS011;1868;48.918;9.438;2023-04-01T13:35:17;3.83;;;0.60;;
3704;SDS011;1868;48.918;9.438;2023-04-01T13:38:10;3.93;;;3.53;;
3704;SDS011;1868;48.918;9.438;2023-04-01T13:41:21;0.40;;;0.40;;
3704;SDS011;1868;48.918;9.438;2023-04-01T13:44:02;4.37;;;0.37;;
3704;SDS011;1868;48.918;9.438;2023-04-01T13:46:54;0.40;;;0.40;;
3704;SDS011;1868;48.918;9.438;2023-04-01T13:53:11;0.40;;;0.40;;
3704;SDS011;1868;48.918;9.438;2023-04-01T13:56:08;0.60;;;0.60;;
3704;SDS011;1868;48.918;9.438;2023-04-01T13:58:58;0.40;;;0.40;;
3704;SDS011;1868;48.918;9.438;2023-04-01T14:01:43;0.30;;;0.30;;
3704;SDS011;1868;48.918;9.438;2023-04-01T14:04:34;1.17;;;0.50;;
3704;SDS011;1868;48.918;9.438;2023-04-01T14:07:41;0.50;;;0.40;;
3704;SDS011;1868;48.918;9.438;2023-04-01T14:10:21;1.80;;;0.50;;
3704;SDS011;1868;48.918;9.438;2023-04-01T14:13:01;0.50;;;0.40;;
3704;SDS011;1868;48.918;9.438;2023-04-01T14:15:46;0.40;;;0.40;;
3704;SDS011;1868;48.918;9.438;2023-04-01T14:18:42;1.03;;;0.40;;
3704;SDS011;1868;48.918;9.438;2023-04-01T14:21:29;0.20;;;0.20;;
3704;SDS011;1868;48.918;9.438;2023-04-01T14:24:17;0.20;;;0.20;;
3704;SDS011;1868;48.918;9.438;2023-04-01T14:27:00;0.30;;;0.30;;
3704;SDS011;1868;48.918;9.438;2023-04-01T14:33:12;0.30;;;0.30;;
3704;SDS011;1868;48.918;9.438;2023-04-01T14:35:56;1.37;;;0.30;;
3704;SDS011;1868;48.918;9.438;2023-04-01T14:38:54;1.07;;;0.50;;
3704;SDS011;1868;48.918;9.438;2023-04-01T14:41:38;0.73;;;0.30;;
3704;SDS011;1868;48.918;9.438;2023-04-01T14:44:23;0.70;;;0.30;;
3704;SDS011;1868;48.918;9.438;2023-04-01T14:50:16;0.37;;;0.37;;
3704;SDS011;1868;48.918;9.438;2023-04-01T14:52:57;0.40;;;0.40;;
3704;SDS011;1868;48.918;9.438;2023-04-01T14:55:44;0.30;;;0.30;;
3704;SDS011;1868;48.918;9.438;2023-04-01T14:58:20;0.40;;;0.40;;
3704;SDS011;1868;48.918;9.438;2023-04-01T15:00:55;0.47;;;0.30;;
3704;SDS011;1868;48.918;9.438;2023-04-01T15:03:40;1.17;;;0.30;;
3704;SDS011;1868;48.918;9.438;2023-04-01T15:09:28;0.33;;;0.33;;
3704;SDS011;1868;48.918;9.438;2023-04-01T15:12:15;0.40;;;0.20;;
3704;SDS011;1868;48.918;9.438;2023-04-01T15:15:04;0.30;;;0.30;;
3704;SDS011;1868;48.918;9.438;2023-04-01T15:18:07;0.30;;;0.30;;
3704;SDS011;1868;48.918;9.438;2023-04-01T15:23:52;0.30;;;0.30;;
3704;SDS011;1868;48.918;9.438;2023-04-01T15:26:42;0.60;;;0.50;;
3704;SDS011;1868;48.918;9.438;2023-04-01T15:29:49;1.10;;;0.77;;
3704;SDS011;1868;48.918;9.438;2023-04-01T15:32:55;0.63;;;0.63;;
3704;SDS011;1868;48.918;9.438;2023-04-01T15:35:55;0.40;;;0.40;;
3704;SDS011;1868;48.918;9.438;2023-04-01T15:38:36;0.47;;;0.47;;
3704;SDS011;1868;48.918;9.438;2023-04-01T15:41:14;1.23;;;0.60;;
3704;SDS011;1868;48.918;9.438;2023-04-01T15:43:44;2.80;;;1.80;;
3704;SDS011;1868;48.918;9.438;2023-04-01T15:46:21;0.63;;;0.63;;
3704;SDS011;1868;48.918;9.438;2023-04-01T15:49:15;0.30;;;0.30;;
3704;SDS011;1868;48.918;9.438;2023-04-01T15:51:59;1.40;;;0.57;;
3704;SDS011;1868;48.918;9.438;2023-04-01T15:54:59;1.50;;;1.50;;
3704;SDS011;1868;48.918;9.438;2023-04-01T15:57:45;0.40;;;0.40;;
3704;SDS011;1868;48.918;9.438;2023-04-01T16:00:31;0.23;;;0.23;;
3704;SDS011;1868;48.918;9.438;2023-04-01T16:03:10;0.70;;;0.30;;
3704;SDS011;1868;48.918;9.438;2023-04-01T16:05:55;0.47;;;0.47;;
3704;SDS011;1868;48.918;9.438;2023-04-01T16:12:07;0.70;;;0.40;;
3704;SDS011;1868;48.918;9.438;2023-04-01T16:14:47;0.37;;;0.30;;
3704;SDS011;1868;48.918;9.438;2023-04-01T16:17:49;0.47;;;0.40;;
3704;SDS011;1868;48.918;9.438;2023-04-01T16:20:51;0.57;;;0.53;;
3704;SDS011;1868;48.918;9.438;2023-04-01T16:23:30;5.80;;;0.60;;
3704;SDS011;1868;48.918;9.438;2023-04-01T16:26:08;0.33;;;0.33;;
3704;SDS011;1868;48.918;9.438;2023-04-01T16:28:48;0.30;;;0.30;;
3704;SDS011;1868;48.918;9.438;2023-04-01T16:31:25;1.07;;;0.33;;
3704;SDS011;1868;48.918;9.438;2023-04-01T16:34:04;0.40;;;0.40;;
3704;SDS011;1868;48.918;9.438;2023-04-01T16:36:41;0.43;;;0.43;;
3704;SDS011;1868;48.918;9.438;2023-04-01T16:39:27;0.27;;;0.27;;
3704;SDS011;1868;48.918;9.438;2023-04-01T16:42:13;2.73;;;2.53;;
3704;SDS011;1868;48.918;9.438;2023-04-01T16:44:56;1.53;;;1.43;;
3704;SDS011;1868;48.918;9.438;2023-04-01T16:47:35;0.20;;;0.20;;
3704;SDS011;1868;48.918;9.438;2023-04-01T16:50:13;0.80;;;0.80;;
3704;SDS011;1868;48.918;9.438;2023-04-01T16:52:51;1.20;;;0.30;;
3704;SDS011;1868;48.918;9.438;2023-04-01T16:55:34;1.50;;;0.63;;
3704;SDS011;1868;48.918;9.438;2023-04-01T16:58:14;1.37;;;1.27;;
3704;SDS011;1868;48.918;9.438;2023-04-01T17:00:58;0.77;;;0.33;;
3704;SDS011;1868;48.918;9.438;2023-04-01T17:03:37;0.83;;;0.50;;
3704;SDS011;1868;48.918;9.438;2023-04-01T17:06:16;2.00;;;1.00;;
3704;SDS011;1868;48.918;9.438;2023-04-01T17:09:02;0.53;;;0.50;;
3704;SDS011;1868;48.918;9.438;2023-04-01T17:12:01;5.63;;;4.00;;
3704;SDS011;1868;48.918;9.438;2023-04-01T17:14:43;1.60;;;1.10;;
3704;SDS011;1868;48.918;9.438;2023-04-01T17:17:26;29.17;;;16.93;;
3704;SDS011;1868;48.918;9.438;2023-04-01T17:20:14;60.53;;;31.87;;
3704;SDS011;1868;48.918;9.438;2023-04-01T17:23:00;65.10;;;32.13;;
3704;SDS011;1868;48.918;9.438;2023-04-01T17:28:36;2.87;;;2.00;;
3704;SDS011;1868;48.918;9.438;2023-04-01T17:34:15;10.17;;;2.87;;
3704;SDS011;1868;48.918;9.438;2023-04-01T17:37:16;9.20;;;3.07;;
3704;SDS011;1868;48.918;9.438;2023-04-01T17:40:00;4.77;;;2.93;;
3704;SDS011;1868;48.918;9.438;2023-04-01T17:43:00;2.23;;;1.93;;
3704;SDS011;1868;48.918;9.438;2023-04-01T17:45:42;1.60;;;1.50;;
3704;SDS011;1868;48.918;9.438;2023-04-01T17:48:18;1.43;;;0.93;;
3704;SDS011;1868;48.918;9.438;2023-04-01T17:51:04;1.27;;;1.20;;
3704;SDS011;1868;48.918;9.438;2023-04-01T17:53:49;2.73;;;2.00;;
3704;SDS011;1868;48.918;9.438;2023-04-01T17:56:30;3.40;;;2.40;;
3704;SDS011;1868;48.918;9.438;2023-04-01T17:59:12;2.23;;;1.83;;
3704;SDS011;1868;48.918;9.438;2023-04-01T18:01:52;3.30;;;2.50;;
3704;SDS011;1868;48.918;9.438;2023-04-01T18:04:36;3.90;;;1.90;;
3704;SDS011;1868;48.918;9.438;2023-04-01T18:10:33;1.63;;;1.53;;
3704;SDS011;1868;48.918;9.438;2023-04-01T18:13:20;3.27;;;1.47;;
3704;SDS011;1868;48.918;9.438;2023-04-01T18:16:24;2.83;;;1.60;;
3704;SDS011;1868;48.918;9.438;2023-04-01T18:19:07;2.53;;;1.50;;
3704;SDS011;1868;48.918;9.438;2023-04-01T18:21:45;1.53;;;1.40;;
3704;SDS011;1868;48.918;9.438;2023-04-01T18:24:22;2.23;;;1.40;;
3704;SDS011;1868;48.918;9.438;2023-04-01T18:27:02;15.40;;;10.47;;
3704;SDS011;1868;48.918;9.438;2023-04-01T18:29:37;1.80;;;1.30;;
3704;SDS011;1868;48.918;9.438;2023-04-01T18:32:24;3.83;;;1.77;;
3704;SDS011;1868;48.918;9.438;2023-04-01T18:35:12;0.40;;;0.40;;
3704;SDS011;1868;48.918;9.438;2023-04-01T18:37:51;1.03;;;0.60;;
3704;SDS011;1868;48.918;9.438;2023-04-01T18:40:27;0.87;;;0.40;;
3704;SDS011;1868;48.918;9.438;2023-04-01T18:43:08;0.63;;;0.50;;
3704;SDS011;1868;48.918;9.438;2023-04-01T18:45:45;2.77;;;0.97;;
3704;SDS011;1868;48.918;9.438;2023-04-01T18:48:33;2.60;;;1.70;;
3704;SDS011;1868;48.918;9.438;2023-04-01T18:51:14;2.90;;;0.70;;